Time;durP1;ratioP1;P1;durP2;ratioP2;P2;SDS_P1;SDS_P2;PMS_P1;PMS_P2;Temp;Humidity;BMP_temperature;BMP_pressure;BME280_temperature;BME280_humidity;BME280_pressure;Samples;Min_cycle;Max_cycle;Signal;HPM_P1;HPM_P2
2021/05/23 00:02:08;;;;;;;2.97;2.70;;;11.70;99.90;;;;;;5072636;28;20587;-71
2021/05/23 00:04:35;;;;;;;4.07;1.90;;;11.70;99.90;;;;;;5072715;28;20252;-71
2021/05/23 00:07:02;;;;;;;4.97;2.20;;;11.70;99.90;;;;;;5072967;28;20610;-71
2021/05/23 00:09:28;;;;;;;2.53;2.07;;;11.70;99.90;;;;;;5072861;28;20202;-71
2021/05/23 00:11:55;;;;;;;2.30;1.43;;;11.60;99.90;;;;;;5072910;28;20587;-72
2021/05/23 00:14:22;;;;;;;4.20;3.43;;;11.70;99.90;;;;;;5072271;28;20206;-72
2021/05/23 00:16:49;;;;;;;13.47;9.23;;;11.80;99.90;;;;;;5072567;28;20210;-72
2021/05/23 00:19:16;;;;;;;11.30;7.80;;;11.90;99.90;;;;;;5072107;28;20206;-72
2021/05/23 00:21:43;;;;;;;7.53;4.50;;;11.90;99.90;;;;;;5072866;28;20606;-70
2021/05/23 00:24:10;;;;;;;3.00;2.40;;;11.80;99.90;;;;;;5071756;28;20214;-71
2021/05/23 00:26:37;;;;;;;6.00;3.00;;;11.90;99.90;;;;;;5071187;28;20202;-71
2021/05/23 00:29:05;;;;;;;5.83;2.37;;;11.80;99.90;;;;;;5069581;28;20559;-70
2021/05/23 00:31:32;;;;;;;5.17;2.20;;;11.80;99.90;;;;;;5072573;28;20206;-70
2021/05/23 00:33:59;;;;;;;5.33;1.10;;;11.70;99.90;;;;;;5072596;28;20244;-71
2021/05/23 00:36:27;;;;;;;2.97;1.33;;;11.70;99.90;;;;;;5071866;28;20210;-71
2021/05/23 00:38:53;;;;;;;1.80;1.50;;;11.80;99.90;;;;;;5072412;28;20210;-70
2021/05/23 00:41:20;;;;;;;2.70;1.30;;;11.80;99.90;;;;;;5071876;28;20221;-70
2021/05/23 00:43:46;;;;;;;6.03;1.73;;;11.80;99.90;;;;;;5072010;28;20557;-71
2021/05/23 00:46:13;;;;;;;3.73;1.53;;;11.80;99.90;;;;;;5071366;28;20581;-70
2021/05/23 00:48:39;;;;;;;3.90;1.57;;;11.80;99.90;;;;;;5072063;28;20202;-70
2021/05/23 00:51:06;;;;;;;2.60;1.53;;;11.80;99.90;;;;;;5071968;28;20259;-70
2021/05/23 00:53:33;;;;;;;6.00;1.83;;;11.70;99.90;;;;;;5071872;28;20206;-70
2021/05/23 00:56:01;;;;;;;7.00;1.70;;;11.70;99.90;;;;;;5072097;28;20206;-70
2021/05/23 00:58:28;;;;;;;1.30;1.20;;;11.70;99.90;;;;;;5071699;28;20297;-70
2021/05/23 01:01:10;;;;;;;4.13;1.97;;;11.70;99.90;;;;;;5071579;28;20202;-70
2021/05/23 01:03:59;;;;;;;2.60;1.40;;;11.80;99.90;;;;;;5071588;28;20206;-70
2021/05/23 01:06:26;;;;;;;5.83;2.13;;;11.80;99.90;;;;;;5068069;28;20234;-69
2021/05/23 01:08:55;;;;;;;1.50;0.97;;;11.70;99.90;;;;;;5071376;28;20209;-69
2021/05/23 01:12:09;;;;;;;1.47;1.33;;;11.70;99.90;;;;;;5071444;28;20253;-70
2021/05/23 01:14:51;;;;;;;6.77;1.23;;;11.70;99.90;;;;;;5058093;28;20215;-70
2021/05/23 01:17:22;;;;;;;3.40;1.60;;;11.50;99.90;;;;;;5071098;28;20586;-70
2021/05/23 01:20:02;;;;;;;3.13;2.27;;;11.30;99.90;;;;;;5071166;28;20575;-69
2021/05/23 01:22:34;;;;;;;1.97;1.30;;;11.40;99.90;;;;;;5071203;28;20209;-71
2021/05/23 01:25:06;;;;;;;5.17;2.63;;;11.30;99.90;;;;;;5071541;28;20328;-71
2021/05/23 01:27:35;;;;;;;2.23;1.67;;;11.20;99.90;;;;;;5071530;28;20202;-71
2021/05/23 01:30:04;;;;;;;3.33;2.67;;;11.30;99.90;;;;;;5071283;28;20300;-71
2021/05/23 01:32:31;;;;;;;3.77;1.57;;;11.30;99.90;;;;;;5071191;28;20210;-71
2021/05/23 01:35:00;;;;;;;2.17;1.60;;;11.40;99.90;;;;;;5071698;28;20229;-71
2021/05/23 01:37:27;;;;;;;6.90;2.23;;;11.30;99.90;;;;;;5070605;28;20278;-71
2021/05/23 01:39:53;;;;;;;1.90;1.50;;;11.40;99.90;;;;;;5070895;28;20220;-71
2021/05/23 01:42:23;;;;;;;3.70;1.67;;;11.40;99.90;;;;;;5070483;28;20206;-71
2021/05/23 01:44:50;;;;;;;1.97;1.47;;;11.30;99.90;;;;;;5070537;28;20256;-70
2021/05/23 01:47:17;;;;;;;3.57;1.30;;;11.30;99.90;;;;;;5070857;28;20209;-70
2021/05/23 01:49:44;;;;;;;2.63;1.70;;;11.30;99.90;;;;;;5070163;28;20624;-71
2021/05/23 01:52:11;;;;;;;4.07;1.93;;;11.40;99.90;;;;;;5070352;28;20205;-69
2021/05/23 01:54:37;;;;;;;2.63;0.93;;;11.30;99.90;;;;;;5075986;28;20209;-70
2021/05/23 01:57:04;;;;;;;2.17;1.60;;;11.40;99.90;;;;;;5090681;28;20258;-70
2021/05/23 01:59:32;;;;;;;5.00;1.83;;;11.40;99.90;;;;;;5063543;28;20205;-69
2021/05/23 02:01:58;;;;;;;3.03;2.00;;;11.30;99.90;;;;;;5091032;28;20212;-69
2021/05/23 02:04:25;;;;;;;2.17;1.37;;;11.30;99.90;;;;;;5090748;28;20213;-69
2021/05/23 02:06:52;;;;;;;4.50;2.03;;;11.20;99.90;;;;;;5090510;28;20201;-69
2021/05/23 02:09:18;;;;;;;2.73;1.60;;;11.30;99.90;;;;;;5090689;28;20212;-70
2021/05/23 02:11:45;;;;;;;4.40;2.10;;;11.30;99.90;;;;;;5090381;28;20216;-70
2021/05/23 02:14:11;;;;;;;3.80;1.87;;;11.30;99.90;;;;;;5090852;28;20266;-71
2021/05/23 02:16:39;;;;;;;2.93;1.93;;;11.30;99.90;;;;;;5091020;28;20202;-69
2021/05/23 02:19:07;;;;;;;2.27;1.50;;;11.20;99.90;;;;;;5090450;28;20205;-71
2021/05/23 02:21:33;;;;;;;3.00;1.37;;;11.10;99.90;;;;;;5090541;28;20292;-71
2021/05/23 02:24:00;;;;;;;4.50;1.57;;;11.00;99.90;;;;;;5090814;28;20202;-70
2021/05/23 02:26:26;;;;;;;4.00;1.93;;;11.00;99.90;;;;;;5090099;28;20240;-70
2021/05/23 02:28:53;;;;;;;3.07;1.50;;;11.00;99.90;;;;;;5073625;28;20205;-71
2021/05/23 02:31:20;;;;;;;2.63;1.57;;;11.00;99.90;;;;;;5090342;28;20263;-70
2021/05/23 02:33:48;;;;;;;5.00;1.90;;;11.10;99.90;;;;;;5090470;28;20201;-70
2021/05/23 02:36:14;;;;;;;3.60;1.60;;;11.10;99.90;;;;;;5089961;28;20577;-71
2021/05/23 02:38:41;;;;;;;5.33;1.67;;;11.00;99.90;;;;;;5090533;28;20216;-70
2021/05/23 02:41:08;;;;;;;1.83;1.50;;;11.00;99.90;;;;;;5090116;28;20212;-71
2021/05/23 02:43:34;;;;;;;4.00;1.80;;;10.90;99.90;;;;;;5090679;28;20668;-71
2021/05/23 02:46:03;;;;;;;4.07;1.50;;;10.90;99.90;;;;;;5090617;28;20286;-70
2021/05/23 02:48:30;;;;;;;5.17;1.87;;;10.80;99.90;;;;;;5090838;28;20209;-70
2021/05/23 02:50:59;;;;;;;4.27;2.40;;;10.80;99.90;;;;;;5090280;28;20205;-71
2021/05/23 02:53:25;;;;;;;2.33;1.80;;;10.80;99.90;;;;;;5090058;28;20216;-71
2021/05/23 02:55:53;;;;;;;4.47;2.30;;;10.80;99.90;;;;;;5090524;28;20209;-71
2021/05/23 02:58:20;;;;;;;3.73;1.60;;;10.80;99.90;;;;;;5090369;28;20205;-70
2021/05/23 03:00:47;;;;;;;2.87;1.73;;;10.80;99.90;;;;;;5091071;28;20258;-71
2021/05/23 03:03:14;;;;;;;6.37;2.03;;;10.70;99.90;;;;;;5093943;28;20202;-70
2021/05/23 03:05:41;;;;;;;4.33;1.50;;;10.60;99.90;;;;;;5094109;28;20286;-70
2021/05/23 03:08:09;;;;;;;3.30;1.90;;;10.70;99.90;;;;;;5093396;28;20685;-70
2021/05/23 03:10:37;;;;;;;4.47;1.90;;;10.60;99.90;;;;;;5094449;28;20208;-70
2021/05/23 03:13:06;;;;;;;4.70;2.33;;;10.50;99.90;;;;;;5094120;28;20205;-71
2021/05/23 03:15:33;;;;;;;4.47;3.83;;;10.50;99.90;;;;;;5094292;28;20202;-71
2021/05/23 03:18:02;;;;;;;4.13;3.20;;;10.40;99.90;;;;;;5094244;28;20202;-70
2021/05/23 03:20:28;;;;;;;5.67;2.73;;;10.50;99.90;;;;;;5093784;28;20647;-70
2021/05/23 03:22:57;;;;;;;3.20;2.73;;;10.40;99.90;;;;;;5094068;28;20665;-69
2021/05/23 03:25:26;;;;;;;7.67;3.33;;;10.30;99.90;;;;;;5093149;28;20716;-70
2021/05/23 03:27:53;;;;;;;3.63;2.83;;;10.50;99.90;;;;;;5093839;28;20632;-69
2021/05/23 03:30:23;;;;;;;6.00;2.93;;;10.50;99.90;;;;;;5093326;28;20202;-69
2021/05/23 03:32:49;;;;;;;7.20;3.30;;;10.50;99.90;;;;;;5093532;28;20624;-70
2021/05/23 03:35:16;;;;;;;5.97;3.40;;;10.50;99.90;;;;;;5093056;28;20209;-69
2021/05/23 03:37:43;;;;;;;5.17;3.47;;;10.60;99.90;;;;;;5093897;28;20198;-69
2021/05/23 03:40:14;;;;;;;4.67;2.40;;;10.50;99.90;;;;;;5093616;28;20205;-69
2021/05/23 03:42:42;;;;;;;2.70;1.90;;;10.50;99.90;;;;;;5079745;28;20197;-69
2021/05/23 03:45:10;;;;;;;3.50;1.97;;;10.30;99.90;;;;;;5093017;28;20587;-69
2021/05/23 03:47:37;;;;;;;8.47;3.00;;;10.30;99.90;;;;;;5092907;28;20255;-70
2021/05/23 03:50:05;;;;;;;5.80;2.37;;;10.30;99.90;;;;;;5093664;28;20201;-69
2021/05/23 03:52:31;;;;;;;3.13;2.27;;;10.40;99.90;;;;;;5093708;28;20197;-70
2021/05/23 03:54:58;;;;;;;4.67;2.17;;;10.40;99.90;;;;;;5093781;28;20213;-70
2021/05/23 03:57:25;;;;;;;2.57;2.03;;;10.40;99.90;;;;;;5092897;28;20206;-70
2021/05/23 03:59:52;;;;;;;2.90;1.40;;;10.40;99.90;;;;;;5093244;28;20683;-70
2021/05/23 04:02:18;;;;;;;1.90;1.63;;;10.40;99.90;;;;;;5092276;28;20735;-70
2021/05/23 04:04:49;;;;;;;2.80;1.73;;;10.40;99.90;;;;;;5093069;28;20272;-70
2021/05/23 04:07:18;;;;;;;2.80;2.10;;;10.40;99.90;;;;;;5092822;28;20718;-70
2021/05/23 04:09:44;;;;;;;3.40;1.73;;;10.30;99.90;;;;;;5093186;28;20201;-70
2021/05/23 04:12:16;;;;;;;2.70;1.73;;;10.30;99.90;;;;;;5092027;28;20259;-70
2021/05/23 04:14:43;;;;;;;3.83;2.00;;;10.40;99.90;;;;;;5092709;28;20209;-70
2021/05/23 04:17:11;;;;;;;4.50;2.70;;;10.40;99.90;;;;;;5092758;28;20210;-70
2021/05/23 04:19:37;;;;;;;2.57;1.50;;;10.40;99.90;;;;;;5093164;28;20206;-70
2021/05/23 04:22:04;;;;;;;2.57;1.63;;;10.30;99.90;;;;;;5092537;28;20198;-70
2021/05/23 04:24:33;;;;;;;3.07;2.03;;;10.20;99.90;;;;;;5093019;28;20224;-70
2021/05/23 04:26:59;;;;;;;5.17;2.03;;;10.20;99.90;;;;;;5093206;28;20201;-70
2021/05/23 04:29:26;;;;;;;3.37;2.03;;;10.10;99.90;;;;;;5083275;28;20206;-70
2021/05/23 04:31:52;;;;;;;5.40;2.20;;;10.00;99.90;;;;;;5087890;28;20209;-69
2021/05/23 04:34:20;;;;;;;2.93;1.90;;;10.10;99.90;;;;;;5092416;28;20205;-70
2021/05/23 04:36:46;;;;;;;4.93;2.30;;;10.20;99.90;;;;;;5092794;28;20209;-70
2021/05/23 04:39:13;;;;;;;6.93;2.07;;;10.40;99.90;;;;;;5092169;28;20197;-70
2021/05/23 04:41:39;;;;;;;4.90;2.17;;;10.40;99.90;;;;;;5092466;28;20206;-70
2021/05/23 04:44:07;;;;;;;3.03;1.70;;;10.50;99.90;;;;;;5091705;28;20205;-70
2021/05/23 04:46:34;;;;;;;3.67;1.77;;;10.50;99.90;;;;;;5092337;28;20237;-70
2021/05/23 04:49:00;;;;;;;3.63;2.07;;;10.50;99.90;;;;;;5092645;28;20681;-69
2021/05/23 04:51:28;;;;;;;2.17;1.93;;;10.40;99.90;;;;;;5092133;28;20210;-70
2021/05/23 04:53:54;;;;;;;6.33;2.00;;;10.40;99.90;;;;;;5092079;28;20216;-69
2021/05/23 04:56:21;;;;;;;4.03;1.70;;;10.60;99.90;;;;;;5091733;28;20206;-70
2021/05/23 04:58:48;;;;;;;5.53;2.40;;;10.60;99.90;;;;;;5091949;28;20828;-71
2021/05/23 05:01:15;;;;;;;5.43;2.20;;;10.80;99.90;;;;;;5091217;28;20205;-70
2021/05/23 05:03:41;;;;;;;2.70;1.70;;;10.90;99.90;;;;;;5092192;28;20206;-70
2021/05/23 05:06:08;;;;;;;2.80;1.80;;;11.00;99.90;;;;;;5091847;28;20243;-70
2021/05/23 05:08:35;;;;;;;5.20;2.23;;;11.00;99.90;;;;;;5091592;28;20202;-70
2021/05/23 05:11:02;;;;;;;9.10;2.70;;;11.10;99.90;;;;;;5092282;28;20566;-69
2021/05/23 05:13:29;;;;;;;2.53;2.10;;;11.20;99.90;;;;;;5091485;28;20205;-69
2021/05/23 05:15:55;;;;;;;5.73;2.00;;;11.20;99.90;;;;;;5091753;28;20243;-69
2021/05/23 05:18:22;;;;;;;3.57;2.20;;;11.20;99.90;;;;;;5091426;28;20209;-70
2021/05/23 05:20:48;;;;;;;11.63;2.83;;;11.20;99.90;;;;;;5092026;28;20202;-70
2021/05/23 05:23:15;;;;;;;2.40;1.53;;;11.20;99.90;;;;;;5086720;28;20214;-69
2021/05/23 05:25:42;;;;;;;3.37;2.00;;;11.30;99.90;;;;;;5078869;28;20295;-70
2021/05/23 05:28:08;;;;;;;4.70;1.90;;;11.30;99.90;;;;;;5067099;28;20211;-70
2021/05/23 05:30:35;;;;;;;2.80;1.40;;;11.30;99.90;;;;;;5081344;28;20206;-69
2021/05/23 05:33:01;;;;;;;2.30;1.43;;;11.30;99.90;;;;;;5063362;28;20581;-69
2021/05/23 05:35:28;;;;;;;3.17;1.80;;;11.30;99.90;;;;;;5068275;28;20680;-71
2021/05/23 05:37:54;;;;;;;6.87;2.90;;;11.40;99.90;;;;;;5080327;28;20259;-70
2021/05/23 05:40:21;;;;;;;3.17;2.73;;;11.30;99.90;;;;;;5090027;28;20259;-71
2021/05/23 05:42:49;;;;;;;2.20;1.80;;;11.40;99.90;;;;;;5090667;28;20213;-70
2021/05/23 05:45:16;;;;;;;3.97;2.33;;;11.50;99.90;;;;;;5088326;28;20240;-70
2021/05/23 05:47:42;;;;;;;3.10;1.87;;;11.50;99.90;;;;;;5089362;28;20205;-70
2021/05/23 05:50:10;;;;;;;1.60;1.20;;;11.50;99.90;;;;;;5088672;28;20205;-70
2021/05/23 05:52:37;;;;;;;3.03;1.57;;;11.50;99.90;;;;;;5084631;28;20198;-70
2021/05/23 05:55:04;;;;;;;4.17;2.10;;;11.40;99.90;;;;;;5088286;28;20205;-70
2021/05/23 05:57:30;;;;;;;3.70;1.50;;;11.50;99.90;;;;;;5084702;28;20201;-70
2021/05/23 05:59:58;;;;;;;3.47;1.53;;;11.60;99.90;;;;;;5086733;28;20205;-70
2021/05/23 06:02:24;;;;;;;6.10;1.90;;;11.80;99.90;;;;;;5086452;28;20210;-70
2021/05/23 06:04:50;;;;;;;2.33;1.87;;;11.80;99.90;;;;;;5089415;28;20213;-70
2021/05/23 06:07:18;;;;;;;3.33;1.97;;;11.80;99.90;;;;;;5088960;28;20669;-71
2021/05/23 06:09:44;;;;;;;2.63;1.47;;;12.00;99.90;;;;;;5087605;28;20210;-71
2021/05/23 06:12:11;;;;;;;7.17;2.13;;;12.30;99.90;;;;;;5088462;28;20284;-70
2021/05/23 06:14:38;;;;;;;4.63;1.87;;;12.40;99.90;;;;;;5087279;28;20213;-71
2021/05/23 06:17:06;;;;;;;3.80;2.77;;;12.40;99.90;;;;;;5066980;28;20229;-71
2021/05/23 06:19:32;;;;;;;5.77;2.27;;;12.50;99.90;;;;;;5068985;28;20213;-70
2021/05/23 06:21:59;;;;;;;2.67;1.63;;;12.60;99.90;;;;;;5064623;28;20203;-71
2021/05/23 06:24:25;;;;;;;1.97;1.50;;;12.70;99.90;;;;;;5066054;28;20275;-70
2021/05/23 06:26:52;;;;;;;2.63;1.73;;;12.80;99.90;;;;;;5064375;28;20222;-71
2021/05/23 06:29:18;;;;;;;5.80;1.67;;;13.00;99.90;;;;;;5059184;28;20633;-72
2021/05/23 06:31:45;;;;;;;4.93;2.07;;;13.10;99.90;;;;;;5067347;28;20205;-70
2021/05/23 06:34:12;;;;;;;5.03;1.60;;;13.10;99.90;;;;;;5069797;28;20206;-71
2021/05/23 06:36:39;;;;;;;4.57;2.05;;;13.20;99.90;;;;;;5073844;28;20202;-70
2021/05/23 06:39:06;;;;;;;4.60;1.33;;;13.60;99.90;;;;;;5074346;28;20561;-70
2021/05/23 06:41:33;;;;;;;4.70;1.85;;;13.80;99.90;;;;;;5073390;28;20228;-70
2021/05/23 06:44:00;;;;;;;8.93;2.03;;;13.90;99.90;;;;;;5074346;28;20210;-70
2021/05/23 06:46:26;;;;;;;3.92;1.60;;;13.70;99.90;;;;;;5074190;28;20233;-70
2021/05/23 06:48:53;;;;;;;2.97;2.15;;;13.70;99.90;;;;;;5073775;28;20209;-70
2021/05/23 06:51:20;;;;;;;4.68;2.13;;;13.70;99.90;;;;;;5074018;28;20206;-70
2021/05/23 06:53:47;;;;;;;7.75;3.22;;;13.90;99.90;;;;;;5074213;28;20209;-70
2021/05/23 06:56:14;;;;;;;6.93;2.63;;;13.80;99.90;;;;;;5073226;28;20294;-69
2021/05/23 06:58:42;;;;;;;4.30;1.75;;;13.80;99.90;;;;;;5073329;28;20677;-70
2021/05/23 07:01:08;;;;;;;9.02;3.17;;;13.80;99.90;;;;;;5072997;28;20703;-70
2021/05/23 07:03:35;;;;;;;5.93;2.17;;;13.60;99.90;;;;;;5093800;28;20202;-70
2021/05/23 07:06:02;;;;;;;6.45;2.40;;;13.80;99.90;;;;;;5094845;28;20638;-71
2021/05/23 07:08:29;;;;;;;7.32;2.03;;;13.80;99.90;;;;;;5093892;28;20214;-69
2021/05/23 07:10:56;;;;;;;6.97;2.35;;;14.10;99.90;;;;;;5094261;28;20205;-70
2021/05/23 07:13:23;;;;;;;3.78;1.80;;;14.40;99.90;;;;;;5093760;28;20202;-70
2021/05/23 07:15:50;;;;;;;4.97;1.92;;;14.50;99.90;;;;;;5093936;28;20280;-70
2021/05/23 07:18:17;;;;;;;5.35;1.40;;;14.20;99.90;;;;;;5084361;28;20289;-70
2021/05/23 07:20:44;;;;;;;3.95;1.48;;;14.30;99.90;;;;;;5090244;28;20250;-69
2021/05/23 07:23:11;;;;;;;5.00;1.95;;;14.30;99.90;;;;;;5092666;28;20205;-70
2021/05/23 07:25:39;;;;;;;5.18;2.33;;;14.30;99.90;;;;;;5077048;28;20222;-69
2021/05/23 07:28:06;;;;;;;4.05;1.40;;;14.10;99.90;;;;;;5091039;28;20202;-69
2021/05/23 07:30:32;;;;;;;6.93;1.92;;;14.20;99.90;;;;;;5089780;28;20202;-71
2021/05/23 07:32:59;;;;;;;5.53;1.55;;;14.20;99.90;;;;;;5091382;28;20205;-70
2021/05/23 07:35:26;;;;;;;6.10;1.95;;;14.30;99.90;;;;;;5082054;28;20214;-70
2021/05/23 07:37:53;;;;;;;3.63;1.95;;;14.50;99.90;;;;;;5073201;28;20217;-69
2021/05/23 07:40:20;;;;;;;3.03;1.25;;;14.70;99.90;;;;;;5071903;28;20213;-70
2021/05/23 07:42:47;;;;;;;6.53;2.60;;;14.30;99.90;;;;;;5071718;28;20206;-69
2021/05/23 07:45:14;;;;;;;3.70;1.48;;;14.70;99.90;;;;;;5072212;28;20574;-70
2021/05/23 07:47:41;;;;;;;3.60;1.70;;;14.70;99.90;;;;;;5072486;28;20666;-71
2021/05/23 07:50:09;;;;;;;6.60;2.08;;;14.50;99.90;;;;;;5072968;28;20681;-71
2021/05/23 07:52:36;;;;;;;5.38;2.00;;;14.40;99.90;;;;;;5073135;28;20248;-71
2021/05/23 07:55:03;;;;;;;3.53;1.55;;;14.20;99.90;;;;;;5073148;28;20238;-72
2021/05/23 07:57:30;;;;;;;5.32;1.75;;;14.80;99.90;;;;;;5073181;28;20293;-70
2021/05/23 07:59:57;;;;;;;3.70;1.20;;;14.90;99.90;;;;;;5071628;28;20678;-70
2021/05/23 08:02:24;;;;;;;6.13;2.17;;;15.00;99.90;;;;;;5082846;28;20220;-70
2021/05/23 08:04:51;;;;;;;5.05;1.20;;;15.30;99.90;;;;;;5092435;28;20297;-70
2021/05/23 08:07:17;;;;;;;6.65;1.98;;;15.80;99.90;;;;;;5092786;28;20692;-71
2021/05/23 08:09:44;;;;;;;3.72;1.67;;;15.70;99.90;;;;;;5092691;28;20201;-70
2021/05/23 08:12:11;;;;;;;3.25;1.48;;;16.30;99.90;;;;;;5092578;28;20201;-72
2021/05/23 08:14:37;;;;;;;6.32;1.75;;;16.00;99.90;;;;;;5093299;28;20540;-70
2021/05/23 08:17:05;;;;;;;7.18;2.22;;;15.90;99.90;;;;;;5092648;28;20597;-70
2021/05/23 08:19:31;;;;;;;2.50;1.38;;;15.70;99.90;;;;;;5081404;28;20210;-71
2021/05/23 08:21:58;;;;;;;5.90;1.98;;;15.80;99.90;;;;;;5090637;28;20205;-70
2021/05/23 08:24:25;;;;;;;3.70;1.10;;;16.20;99.90;;;;;;5091369;28;20309;-69
2021/05/23 08:26:52;;;;;;;2.70;1.48;;;16.30;99.90;;;;;;5081640;28;20256;-70
2021/05/23 08:29:18;;;;;;;3.67;1.20;;;16.00;99.90;;;;;;5071808;28;20586;-69
2021/05/23 08:31:45;;;;;;;3.63;1.30;;;15.80;99.90;;;;;;5067771;28;20198;-70
2021/05/23 08:34:12;;;;;;;2.53;1.10;;;15.50;99.90;;;;;;5072010;28;20202;-70
2021/05/23 08:36:39;;;;;;;2.38;1.27;;;15.80;99.90;;;;;;5072459;28;20214;-69
2021/05/23 08:39:06;;;;;;;2.90;1.58;;;15.60;99.90;;;;;;5071600;28;20743;-70
2021/05/23 08:41:32;;;;;;;2.55;1.23;;;15.60;99.90;;;;;;5072236;28;20213;-71
2021/05/23 08:43:59;;;;;;;6.45;2.10;;;15.50;99.90;;;;;;5072703;28;20234;-70
2021/05/23 08:46:28;;;;;;;3.30;1.15;;;15.70;99.90;;;;;;5071336;28;20238;-70
2021/05/23 08:48:57;;;;;;;4.35;1.67;;;15.30;99.90;;;;;;5072219;28;20206;-70
2021/05/23 08:51:24;;;;;;;4.53;1.45;;;16.00;99.90;;;;;;5071295;28;20672;-73
2021/05/23 08:53:51;;;;;;;4.07;1.27;;;15.90;99.90;;;;;;5071670;28;20690;-75
2021/05/23 08:56:17;;;;;;;3.63;1.30;;;16.40;99.90;;;;;;5071538;28;20202;-70
2021/05/23 08:58:44;;;;;;;3.05;1.27;;;16.70;99.90;;;;;;5072168;28;20201;-71
2021/05/23 09:01:22;;;;;;;4.45;1.50;;;16.60;99.90;;;;;;5072038;28;20233;-70
2021/05/23 09:03:56;;;;;;;3.45;1.25;;;17.00;99.90;;;;;;5092231;28;20201;-70
2021/05/23 09:06:28;;;;;;;4.63;1.60;;;16.20;99.90;;;;;;5091336;28;20604;-70
2021/05/23 09:08:58;;;;;;;7.75;2.10;;;16.20;99.90;;;;;;5092302;28;20213;-70
2021/05/23 09:11:25;;;;;;;1.98;1.45;;;17.30;99.90;;;;;;5091456;28;20322;-70
2021/05/23 09:13:53;;;;;;;2.22;1.48;;;17.80;99.90;;;;;;5091703;28;20589;-71
2021/05/23 09:16:20;;;;;;;3.45;1.30;;;18.00;99.90;;;;;;5091322;28;20672;-70
2021/05/23 09:18:48;;;;;;;2.60;1.52;;;18.60;99.90;;;;;;5079055;28;20210;-70
2021/05/23 09:21:17;;;;;;;5.50;2.08;;;18.70;99.90;;;;;;5070775;28;20202;-74
2021/05/23 09:23:47;;;;;;;2.40;1.45;;;18.10;99.90;;;;;;5071590;28;20279;-71
2021/05/23 09:26:16;;;;;;;6.28;1.60;;;17.30;99.90;;;;;;5070843;28;20315;-71
2021/05/23 09:28:43;;;;;;;5.90;1.35;;;16.70;99.90;;;;;;5071265;28;20203;-71
2021/05/23 09:31:14;;;;;;;4.55;1.45;;;17.50;99.90;;;;;;5070394;28;20221;-71
2021/05/23 09:33:45;;;;;;;2.53;1.50;;;18.00;99.90;;;;;;5071408;28;20199;-71
2021/05/23 09:36:12;;;;;;;3.40;2.13;;;19.40;99.90;;;;;;5070465;28;20206;-71
2021/05/23 09:38:52;;;;;;;2.40;1.15;;;19.00;99.90;;;;;;5071311;28;20210;-71
2021/05/23 09:41:23;;;;;;;2.60;1.52;;;19.40;99.90;;;;;;5070568;28;20213;-71
2021/05/23 09:43:51;;;;;;;4.13;1.85;;;20.10;99.90;;;;;;5070780;28;20206;-71
2021/05/23 09:46:17;;;;;;;3.92;1.65;;;18.70;99.90;;;;;;5070554;28;20291;-72
2021/05/23 09:48:50;;;;;;;2.42;1.42;;;18.70;99.90;;;;;;5071159;28;20558;-71
2021/05/23 09:51:18;;;;;;;3.67;1.40;;;18.10;99.90;;;;;;5055680;28;20343;-74
2021/05/23 09:53:57;;;;;;;2.30;1.52;;;18.60;99.90;;;;;;5070986;28;20198;-71
2021/05/23 09:56:30;;;;;;;1.65;0.85;;;18.30;99.90;;;;;;5070219;28;20242;-71
2021/05/23 09:58:56;;;;;;;3.65;1.75;;;18.20;99.90;;;;;;5070985;28;20206;-70
2021/05/23 10:01:28;;;;;;;2.85;1.40;;;18.50;99.90;;;;;;5072701;28;20209;-71
2021/05/23 10:03:56;;;;;;;1.95;1.40;;;18.80;99.90;;;;;;5090936;28;20569;-71
2021/05/23 10:06:27;;;;;;;1.92;1.35;;;19.00;99.90;;;;;;5090436;28;20241;-71
2021/05/23 10:08:54;;;;;;;10.60;1.98;;;18.40;99.90;;;;;;5090860;28;20209;-72
2021/05/23 10:11:21;;;;;;;5.60;2.00;;;20.80;99.90;;;;;;5090092;28;20233;-73
2021/05/23 10:13:48;;;;;;;7.10;1.48;;;19.40;99.90;;;;;;5090945;28;20202;-71
2021/05/23 10:16:16;;;;;;;1.90;0.95;;;19.20;99.90;;;;;;5090566;28;20278;-71
2021/05/23 10:18:44;;;;;;;3.90;1.15;;;20.50;99.90;;;;;;5090521;28;20197;-72
2021/05/23 10:21:11;;;;;;;1.30;1.00;;;20.40;99.90;;;;;;5090399;28;20206;-71
2021/05/23 10:23:42;;;;;;;3.95;1.83;;;19.80;99.90;;;;;;5090359;28;20201;-71
2021/05/23 10:26:12;;;;;;;2.05;1.38;;;21.70;99.90;;;;;;5090104;28;20248;-72
2021/05/23 10:28:40;;;;;;;3.15;1.65;;;23.30;99.90;;;;;;5090563;28;20205;-72
2021/05/23 10:31:08;;;;;;;4.25;2.50;;;22.20;99.90;;;;;;5083773;28;20209;-74
2021/05/23 10:33:34;;;;;;;3.60;1.52;;;20.80;99.90;;;;;;5083842;28;20579;-73
2021/05/23 10:36:01;;;;;;;2.33;1.40;;;19.50;99.90;;;;;;5090714;28;20677;-71
2021/05/23 10:38:27;;;;;;;6.22;1.60;;;18.70;99.90;;;;;;5090633;28;20225;-73
2021/05/23 10:40:57;;;;;;;5.63;1.83;;;19.20;99.90;;;;;;5090308;28;20209;-73
2021/05/23 10:43:25;;;;;;;4.55;2.08;;;18.70;99.90;;;;;;5090224;28;20209;-71
2021/05/23 10:46:04;;;;;;;3.10;1.45;;;18.40;99.90;;;;;;5090397;28;20228;-71
2021/05/23 10:48:31;;;;;;;3.35;1.33;;;18.90;99.90;;;;;;5072331;28;20202;-71
2021/05/23 10:50:58;;;;;;;3.67;1.33;;;19.00;99.90;;;;;;5085082;28;20210;-71
2021/05/23 10:53:33;;;;;;;5.47;1.83;;;19.30;99.90;;;;;;5079947;28;20206;-71
2021/05/23 10:56:00;;;;;;;6.82;2.08;;;18.90;99.90;;;;;;5082697;28;20291;-71
2021/05/23 10:58:28;;;;;;;5.43;1.75;;;18.40;99.90;;;;;;5086054;28;20205;-71
2021/05/23 11:00:56;;;;;;;3.70;1.48;;;18.50;99.90;;;;;;5078433;28;20210;-75
2021/05/23 11:03:25;;;;;;;4.03;1.88;;;18.90;99.90;;;;;;5085260;28;20210;-71
2021/05/23 11:06:03;;;;;;;2.05;1.30;;;18.90;99.90;;;;;;5073891;28;20312;-70
2021/05/23 11:08:30;;;;;;;4.43;1.70;;;19.10;99.90;;;;;;5067270;28;20201;-71
2021/05/23 11:10:57;;;;;;;3.85;1.80;;;18.80;99.90;;;;;;5089836;28;20205;-71
2021/05/23 11:13:32;;;;;;;2.53;1.65;;;19.50;99.90;;;;;;5087803;28;20201;-70
2021/05/23 11:16:10;;;;;;;2.13;1.50;;;19.20;99.90;;;;;;5090117;28;20209;-72
2021/05/23 11:18:37;;;;;;;3.55;1.25;;;19.20;99.90;;;;;;5090108;28;20614;-70
2021/05/23 11:21:07;;;;;;;7.13;2.35;;;18.90;99.90;;;;;;5086009;28;20206;-70
2021/05/23 11:23:43;;;;;;;4.38;1.90;;;19.40;99.90;;;;;;5066617;28;20203;-71
2021/05/23 11:26:15;;;;;;;2.47;1.90;;;19.90;99.90;;;;;;5065207;28;20230;-72
2021/05/23 11:28:47;;;;;;;5.13;3.28;;;19.30;99.90;;;;;;5062234;28;20198;-74
2021/05/23 11:31:19;;;;;;;2.35;2.05;;;18.90;99.90;;;;;;5072764;28;20252;-75
2021/05/23 11:33:49;;;;;;;4.47;2.00;;;19.00;99.90;;;;;;5073124;28;20194;-71
2021/05/23 11:36:20;;;;;;;2.83;1.77;;;19.00;99.90;;;;;;5072972;28;20217;-72
2021/05/23 11:38:46;;;;;;;5.82;1.60;;;19.10;99.90;;;;;;5072994;28;20202;-71
2021/05/23 11:41:13;;;;;;;3.13;1.98;;;19.50;99.90;;;;;;5066105;28;20207;-73
2021/05/23 11:43:39;;;;;;;5.00;1.77;;;18.80;99.90;;;;;;5073125;28;20210;-73
2021/05/23 11:46:07;;;;;;;2.85;1.75;;;18.90;99.90;;;;;;5072897;28;20233;-73
2021/05/23 11:48:37;;;;;;;3.35;1.90;;;19.10;99.90;;;;;;5073268;28;20256;-74
2021/05/23 11:51:06;;;;;;;2.42;1.40;;;19.00;99.90;;;;;;5073008;28;20206;-73
2021/05/23 11:53:41;;;;;;;5.13;1.70;;;18.80;99.90;;;;;;5073194;28;20700;-73
2021/05/23 11:56:09;;;;;;;2.80;1.67;;;19.20;99.90;;;;;;5072453;28;20241;-73
2021/05/23 11:58:36;;;;;;;2.95;1.67;;;19.20;99.90;;;;;;5072909;28;20214;-73
2021/05/23 12:01:17;;;;;;;4.70;1.30;;;19.50;99.90;;;;;;5072412;28;20689;-73
2021/05/23 12:03:58;;;;;;;3.30;1.80;;;19.00;99.90;;;;;;5080607;28;20205;-72
2021/05/23 12:06:24;;;;;;;2.70;1.10;;;18.80;99.90;;;;;;5090469;28;20243;-71
2021/05/23 12:08:53;;;;;;;5.50;1.85;;;19.10;99.90;;;;;;5091942;28;20213;-71
2021/05/23 12:11:22;;;;;;;3.60;1.70;;;19.10;99.90;;;;;;5088856;28;20255;-73
2021/05/23 12:13:49;;;;;;;2.88;2.08;;;18.80;99.90;;;;;;5090568;28;20208;-71
2021/05/23 12:16:17;;;;;;;3.67;1.45;;;18.40;99.90;;;;;;5084467;28;20202;-70
2021/05/23 12:18:45;;;;;;;2.17;1.80;;;19.00;99.90;;;;;;5089084;28;20204;-71
2021/05/23 12:21:14;;;;;;;3.90;1.80;;;18.90;99.90;;;;;;5088353;28;20205;-71
2021/05/23 12:23:42;;;;;;;2.53;1.38;;;18.90;99.90;;;;;;5086473;28;20699;-73
2021/05/23 12:26:11;;;;;;;3.47;1.73;;;18.60;99.90;;;;;;5087631;28;20233;-71
2021/05/23 12:28:41;;;;;;;3.08;1.50;;;18.90;99.90;;;;;;5071677;28;20572;-72
2021/05/23 12:31:09;;;;;;;2.65;1.45;;;18.80;99.90;;;;;;5071985;28;20210;-72
2021/05/23 12:33:35;;;;;;;2.00;1.25;;;19.00;99.90;;;;;;5071629;28;20206;-72
2021/05/23 12:36:07;;;;;;;2.47;1.63;;;18.80;99.90;;;;;;5073501;28;20206;-71
2021/05/23 12:38:33;;;;;;;2.13;1.10;;;19.10;99.90;;;;;;5073335;28;20203;-71
2021/05/23 12:41:00;;;;;;;2.88;1.73;;;19.60;99.90;;;;;;5073439;28;20210;-71
2021/05/23 12:43:31;;;;;;;6.88;1.65;;;19.70;99.90;;;;;;5073413;28;20210;-71
2021/05/23 12:46:01;;;;;;;1.55;1.35;;;19.30;99.90;;;;;;5073149;28;20689;-74
2021/05/23 12:48:31;;;;;;;2.47;1.25;;;18.90;99.90;;;;;;5073197;28;20206;-71
2021/05/23 12:50:59;;;;;;;4.65;2.25;;;18.80;99.90;;;;;;5073405;28;20226;-72